Time;durP1;ratioP1;P1;durP2;ratioP2;P2;SDS_P1;SDS_P2;PMS_P1;PMS_P2;Temp;Humidity;BMP_temperature;BMP_pressure;BME280_temperature;BME280_humidity;BME280_pressure;Samples;Min_cycle;Max_cycle;Signal;HPM_P1;HPM_P2
2024/03/13 00:00:13;;;;;;;56.10;25.02;;;4.40;99.90;;;;;;4949607;28;20098;-86
2024/03/13 00:02:41;;;;;;;59.15;25.73;;;4.40;99.90;;;;;;4950047;29;20119;-86
2024/03/13 00:05:09;;;;;;;59.10;24.77;;;4.40;99.90;;;;;;4961519;29;20047;-86
2024/03/13 00:07:37;;;;;;;57.88;25.15;;;4.40;99.90;;;;;;4961036;29;20490;-85
2024/03/13 00:10:09;;;;;;;59.22;25.00;;;5.40;99.90;;;;;;4962339;29;20130;-85
2024/03/13 00:12:35;;;;;;;60.75;25.45;;;4.40;99.90;;;;;;4960032;29;20528;-85
2024/03/13 00:15:04;;;;;;;64.47;25.67;;;4.40;99.90;;;;;;4956003;29;20088;-85
2024/03/13 00:17:31;;;;;;;66.13;26.17;;;4.40;99.90;;;;;;4950866;29;20087;-85
2024/03/13 00:19:58;;;;;;;64.47;27.70;;;4.40;99.90;;;;;;4934492;29;20040;-85
2024/03/13 00:22:29;;;;;;;60.97;24.65;;;4.40;99.90;;;;;;4962833;29;20512;-85
2024/03/13 00:24:56;;;;;;;62.30;25.52;;;4.40;99.90;;;;;;4968829;29;20042;-85
2024/03/13 00:27:24;;;;;;;62.25;26.73;;;4.40;99.90;;;;;;4971501;29;20413;-85
2024/03/13 00:29:51;;;;;;;62.55;25.73;;;4.40;99.90;;;;;;4953160;29;20046;-86
2024/03/13 00:32:26;;;;;;;62.22;25.15;;;4.40;99.90;;;;;;4941002;29;20421;-85
2024/03/13 00:34:52;;;;;;;67.53;28.05;;;4.70;99.90;;;;;;4957617;29;20051;-86
2024/03/13 00:37:21;;;;;;;60.78;25.85;;;4.40;99.90;;;;;;4968640;29;20531;-86
2024/03/13 00:39:48;;;;;;;71.63;28.00;;;4.40;99.90;;;;;;4961117;29;20039;-86
2024/03/13 00:42:14;;;;;;;65.60;27.88;;;4.80;99.90;;;;;;4941464;29;20126;-85
2024/03/13 00:44:42;;;;;;;67.82;26.35;;;4.40;99.90;;;;;;4952033;29;20036;-86
2024/03/13 00:47:14;;;;;;;62.58;25.90;;;4.20;99.90;;;;;;4951235;29;20127;-85
2024/03/13 00:49:42;;;;;;;67.80;27.17;;;4.40;99.90;;;;;;4939606;29;20088;-86
2024/03/13 00:52:08;;;;;;;64.50;28.02;;;4.50;99.90;;;;;;4944419;29;20039;-85
2024/03/13 00:54:36;;;;;;;66.40;27.85;;;4.70;99.90;;;;;;4943252;29;20055;-85
2024/03/13 00:57:02;;;;;;;64.15;25.88;;;4.40;99.90;;;;;;4934057;29;20565;-85
2024/03/13 00:59:29;;;;;;;65.82;26.40;;;4.50;99.90;;;;;;4961920;29;20118;-86
2024/03/13 01:01:56;;;;;;;66.80;26.30;;;4.50;99.90;;;;;;4952641;29;20043;-85
2024/03/13 01:04:26;;;;;;;64.15;26.63;;;4.40;99.90;;;;;;4946344;29;20051;-86
2024/03/13 01:06:53;;;;;;;64.70;26.23;;;5.40;99.90;;;;;;4959617;28;20047;-85
2024/03/13 01:09:22;;;;;;;57.33;25.92;;;4.70;99.90;;;;;;4957062;29;20044;-85
2024/03/13 01:11:52;;;;;;;66.72;27.20;;;5.30;99.90;;;;;;4941155;29;20055;-85
2024/03/13 01:14:22;;;;;;;63.33;25.92;;;4.70;99.90;;;;;;4959644;29;20043;-86
2024/03/13 01:16:53;;;;;;;59.40;25.02;;;4.30;99.90;;;;;;4943473;29;20048;-86
2024/03/13 01:19:21;;;;;;;62.47;27.20;;;4.30;99.90;;;;;;4941590;29;20113;-86
2024/03/13 01:21:52;;;;;;;64.85;26.80;;;5.10;99.90;;;;;;4963670;29;20043;-85
2024/03/13 01:24:19;;;;;;;62.22;27.95;;;4.90;99.90;;;;;;4939072;29;20071;-85
2024/03/13 01:26:46;;;;;;;66.32;26.30;;;4.30;99.90;;;;;;4940904;29;20063;-86
2024/03/13 01:29:13;;;;;;;62.17;25.05;;;4.30;99.90;;;;;;4980833;28;20406;-85
2024/03/13 01:31:40;;;;;;;63.60;26.10;;;4.20;99.90;;;;;;4963462;29;20048;-86
2024/03/13 01:34:09;;;;;;;64.90;26.70;;;4.20;99.90;;;;;;4963699;29;20497;-85
2024/03/13 01:39:22;;;;;;;61.58;25.50;;;4.20;99.90;;;;;;4963010;29;20043;-85
2024/03/13 01:56:26;;;;;;;;;;;4.00;99.90;;;;;;4958426;29;20498;-86
2024/03/13 01:59:20;;;;;;;58.47;24.23;;;4.00;99.90;;;;;;4979371;28;20379;-85
2024/03/13 02:04:31;;;;;;;60.00;26.33;;;4.00;99.90;;;;;;4973593;28;20039;-85
2024/03/13 02:06:59;;;;;;;68.03;26.40;;;4.40;99.90;;;;;;4963311;29;20456;-85
2024/03/13 02:09:28;;;;;;;61.28;25.10;;;4.10;99.90;;;;;;4970308;29;20501;-85
2024/03/13 02:11:55;;;;;;;67.90;25.75;;;4.20;99.90;;;;;;4958302;29;20417;-85
2024/03/13 02:14:21;;;;;;;65.40;25.92;;;4.90;99.90;;;;;;4951147;29;20040;-85
2024/03/13 02:16:52;;;;;;;68.30;26.67;;;4.60;99.90;;;;;;4964614;29;20091;-86
2024/03/13 02:19:18;;;;;;;70.70;25.27;;;5.20;99.90;;;;;;4964727;29;20126;-85
2024/03/13 02:21:47;;;;;;;70.90;26.27;;;4.40;99.90;;;;;;4957877;29;20067;-85
2024/03/13 02:24:13;;;;;;;71.00;27.00;;;4.50;99.90;;;;;;4977995;29;20048;-86
2024/03/13 02:26:40;;;;;;;80.95;29.33;;;4.80;99.90;;;;;;4956898;29;20051;-85
2024/03/13 02:29:08;;;;;;;64.22;25.52;;;5.40;99.90;;;;;;4951197;29;20075;-85
2024/03/13 02:31:35;;;;;;;71.88;27.80;;;5.60;99.90;;;;;;4936517;29;20032;-85
2024/03/13 02:34:04;;;;;;;68.55;27.05;;;4.70;99.90;;;;;;4983041;29;20043;-85
2024/03/13 02:36:31;;;;;;;74.43;27.27;;;5.10;99.90;;;;;;4958593;29;20044;-86
2024/03/13 02:38:58;;;;;;;71.78;28.52;;;4.70;99.90;;;;;;4954756;29;20874;-85
2024/03/13 02:41:24;;;;;;;66.72;27.08;;;4.80;99.90;;;;;;4960985;29;20082;-85
2024/03/13 02:43:51;;;;;;;65.35;26.92;;;5.10;99.90;;;;;;4955328;29;20067;-86
2024/03/13 02:46:18;;;;;;;66.20;26.25;;;4.80;99.90;;;;;;4959708;29;20071;-85
2024/03/13 02:48:44;;;;;;;68.75;26.25;;;4.80;99.90;;;;;;4953700;29;20073;-86
2024/03/13 02:51:11;;;;;;;69.25;28.85;;;5.70;99.90;;;;;;4947186;29;20573;-85
2024/03/13 02:53:38;;;;;;;74.38;26.83;;;5.30;99.90;;;;;;4953505;29;20070;-85
2024/03/13 02:56:07;;;;;;;69.32;26.83;;;5.30;99.90;;;;;;4954600;29;20048;-85
2024/03/13 02:58:35;;;;;;;68.05;26.23;;;5.00;99.90;;;;;;4954941;29;20036;-86
2024/03/13 03:01:02;;;;;;;60.92;25.40;;;5.90;99.90;;;;;;4953042;29;20032;-86
2024/03/13 03:03:30;;;;;;;64.85;26.58;;;5.10;99.90;;;;;;4945335;29;20040;-86
2024/03/13 03:05:57;;;;;;;67.70;27.10;;;5.70;99.90;;;;;;4952582;29;20040;-85
2024/03/13 03:08:23;;;;;;;64.38;26.40;;;5.20;99.90;;;;;;4965121;29;20045;-85
2024/03/13 03:10:50;;;;;;;67.22;25.52;;;5.30;99.90;;;;;;4955332;29;20040;-85
2024/03/13 03:13:17;;;;;;;66.00;26.25;;;5.20;99.90;;;;;;4955385;29;20404;-85
2024/03/13 03:15:44;;;;;;;64.75;26.10;;;5.30;99.90;;;;;;4975185;29;20040;-85
2024/03/13 03:18:11;;;;;;;63.38;26.48;;;5.30;99.90;;;;;;4950165;29;20118;-85
2024/03/13 03:20:39;;;;;;;60.22;25.20;;;5.30;99.90;;;;;;4958034;29;20035;-85
2024/03/13 03:23:08;;;;;;;63.92;25.67;;;5.90;99.90;;;;;;4945535;29;20040;-85
2024/03/13 03:25:35;;;;;;;67.53;25.50;;;6.00;99.90;;;;;;4959037;29;20060;-85
2024/03/13 03:28:02;;;;;;;63.38;25.05;;;5.30;99.90;;;;;;4958223;29;20492;-85
2024/03/13 03:30:31;;;;;;;59.80;24.73;;;5.40;99.90;;;;;;4955064;29;20044;-86
2024/03/13 03:33:00;;;;;;;65.97;25.55;;;5.40;99.90;;;;;;4944753;29;20090;-86
2024/03/13 03:35:27;;;;;;;61.30;24.83;;;5.40;99.90;;;;;;4948404;29;20048;-85
2024/03/13 03:37:54;;;;;;;60.58;24.52;;;6.50;99.90;;;;;;4961180;29;20520;-85
2024/03/13 03:40:23;;;;;;;65.78;26.77;;;6.60;99.90;;;;;;4938595;29;20047;-85
2024/03/13 03:42:50;;;;;;;64.93;25.25;;;5.50;99.90;;;;;;4955847;29;20043;-85
2024/03/13 03:45:17;;;;;;;60.95;24.40;;;6.60;99.90;;;;;;4959817;29;20046;-85
2024/03/13 03:47:43;;;;;;;58.42;24.48;;;5.50;99.90;;;;;;4957785;29;20047;-85
2024/03/13 03:50:10;;;;;;;58.95;24.35;;;6.30;99.90;;;;;;4971929;29;20035;-85
2024/03/13 03:52:38;;;;;;;61.95;24.95;;;5.60;99.90;;;;;;4963997;29;20082;-85
2024/03/13 03:55:06;;;;;;;62.65;24.50;;;6.70;99.90;;;;;;4960170;29;20047;-85
2024/03/13 03:57:32;;;;;;;60.85;24.98;;;5.60;99.90;;;;;;4967332;29;20048;-85
2024/03/13 04:00:00;;;;;;;56.92;23.27;;;6.60;99.90;;;;;;4946856;29;20040;-86
2024/03/13 04:02:27;;;;;;;63.38;25.30;;;5.60;99.90;;;;;;4947144;29;20460;-85
2024/03/13 04:04:54;;;;;;;72.90;25.30;;;5.70;99.90;;;;;;4958959;29;20039;-85
2024/03/13 04:07:21;;;;;;;66.60;24.50;;;5.70;99.90;;;;;;4953227;29;20553;-85
2024/03/13 04:09:47;;;;;;;65.30;25.25;;;5.70;99.90;;;;;;4958378;29;20090;-86
2024/03/13 04:12:15;;;;;;;58.72;25.25;;;5.80;99.90;;;;;;4955618;29;20498;-85
2024/03/13 04:14:44;;;;;;;62.72;24.40;;;5.90;99.90;;;;;;4957115;29;20836;-85
2024/03/13 04:17:10;;;;;;;56.67;23.27;;;6.70;99.90;;;;;;4957044;29;20418;-85
2024/03/13 04:19:39;;;;;;;62.20;24.48;;;5.70;99.90;;;;;;4988475;28;20043;-85
2024/03/13 04:22:07;;;;;;;64.78;23.45;;;6.30;99.90;;;;;;4970591;29;20036;-85
2024/03/13 04:24:33;;;;;;;60.88;22.83;;;5.80;99.90;;;;;;4968496;29;20122;-85
2024/03/13 04:27:00;;;;;;;64.13;23.33;;;6.60;99.90;;;;;;4950559;29;20123;-85
2024/03/13 04:29:26;;;;;;;55.13;22.48;;;5.80;99.90;;;;;;4952659;29;20047;-85
2024/03/13 04:31:53;;;;;;;54.95;22.23;;;6.70;99.90;;;;;;4954930;29;20051;-85
2024/03/13 04:34:20;;;;;;;57.85;22.55;;;6.40;99.90;;;;;;4936381;29;20048;-86
2024/03/13 04:36:47;;;;;;;52.92;22.92;;;5.80;99.90;;;;;;4974241;29;20042;-86
2024/03/13 04:39:13;;;;;;;59.75;23.80;;;6.50;99.90;;;;;;4978716;29;20082;-86
2024/03/13 04:41:40;;;;;;;61.47;23.55;;;5.90;99.90;;;;;;4947628;29;20122;-86
2024/03/13 04:44:09;;;;;;;54.78;22.63;;;5.90;99.90;;;;;;4945636;29;20038;-86
2024/03/13 04:46:37;;;;;;;54.00;21.92;;;5.90;99.90;;;;;;4952647;28;20036;-85
2024/03/13 04:49:03;;;;;;;60.17;23.35;;;6.00;99.90;;;;;;4949171;29;20035;-86
2024/03/13 04:51:30;;;;;;;61.75;23.15;;;6.10;99.90;;;;;;4952847;29;20058;-85
2024/03/13 04:53:57;;;;;;;56.65;22.17;;;6.40;99.90;;;;;;4953339;29;20122;-86
2024/03/13 04:56:24;;;;;;;58.58;22.17;;;6.50;99.90;;;;;;4953084;29;20040;-86
2024/03/13 04:58:51;;;;;;;55.08;23.27;;;6.00;99.90;;;;;;4946336;29;20048;-86
2024/03/13 05:01:18;;;;;;;58.65;22.67;;;5.90;99.90;;;;;;4954661;29;20044;-90
2024/03/13 05:03:46;;;;;;;64.82;24.00;;;6.00;99.90;;;;;;4960978;29;20409;-91
2024/03/13 05:06:13;;;;;;;57.13;22.85;;;6.80;99.90;;;;;;4948017;29;20067;-90
2024/03/13 05:08:40;;;;;;;67.57;23.27;;;6.00;99.90;;;;;;4972071;28;20508;-91
2024/03/13 05:11:09;;;;;;;62.45;23.45;;;6.00;99.90;;;;;;4962265;29;20055;-90
2024/03/13 05:13:38;;;;;;;59.05;22.58;;;6.70;99.90;;;;;;4961353;29;20043;-91
2024/03/13 05:16:06;;;;;;;60.20;23.33;;;6.00;99.90;;;;;;4950126;29;20048;-91
2024/03/13 05:18:34;;;;;;;66.53;23.88;;;5.90;99.90;;;;;;4934360;29;20704;-91
2024/03/13 05:21:01;;;;;;;68.30;23.52;;;6.10;99.90;;;;;;4950587;29;20046;-91
2024/03/13 05:23:27;;;;;;;68.60;22.45;;;6.10;99.90;;;;;;4957158;29;20895;-91
2024/03/13 05:25:55;;;;;;;61.55;22.55;;;6.80;99.90;;;;;;4965872;29;20060;-91
2024/03/13 05:28:22;;;;;;;63.63;23.30;;;6.10;99.90;;;;;;4941910;29;20062;-91
2024/03/13 05:30:49;;;;;;;63.33;22.80;;;6.10;99.90;;;;;;4970491;29;20046;-91
2024/03/13 05:33:16;;;;;;;60.60;23.38;;;6.10;99.90;;;;;;4963914;29;20047;-91
2024/03/13 05:35:43;;;;;;;62.95;22.77;;;6.20;99.90;;;;;;4949843;29;20052;-91
2024/03/13 05:38:10;;;;;;;58.78;22.13;;;6.60;99.90;;;;;;4946783;29;20410;-91
2024/03/13 05:40:37;;;;;;;66.75;22.63;;;7.30;99.90;;;;;;4956633;29;20071;-91
2024/03/13 05:43:04;;;;;;;61.97;22.13;;;6.90;99.90;;;;;;4958652;29;20071;-92
2024/03/13 05:45:30;;;;;;;66.28;23.25;;;6.20;99.90;;;;;;4991914;29;20053;-92
2024/03/13 05:47:57;;;;;;;69.22;23.58;;;7.20;99.90;;;;;;4974034;28;20106;-91
2024/03/13 05:50:23;;;;;;;65.03;23.25;;;6.20;99.90;;;;;;4964078;29;20051;-91
2024/03/13 05:52:50;;;;;;;67.47;23.77;;;6.60;99.90;;;;;;4959746;29;20090;-91
2024/03/13 05:55:17;;;;;;;68.10;22.40;;;6.20;99.90;;;;;;4950732;29;20493;-91
2024/03/13 05:57:44;;;;;;;64.35;23.08;;;6.80;99.90;;;;;;4950388;29;20074;-91
2024/03/13 06:00:13;;;;;;;66.40;22.33;;;6.20;99.90;;;;;;4953314;29;20040;-91
2024/03/13 06:02:40;;;;;;;68.75;23.40;;;6.30;99.90;;;;;;4953505;29;20035;-92
2024/03/13 06:05:16;;;;;;;57.45;23.02;;;6.30;99.90;;;;;;4958962;29;20024;-90
2024/03/13 06:07:43;;;;;;;72.10;23.00;;;6.30;99.90;;;;;;4966042;29;20050;-91
2024/03/13 06:10:10;;;;;;;71.97;24.85;;;6.90;99.90;;;;;;4959952;29;20497;-91
2024/03/13 06:12:37;;;;;;;66.38;23.45;;;7.30;99.90;;;;;;4950111;29;20048;-92
2024/03/13 06:15:12;;;;;;;60.22;23.02;;;6.90;99.90;;;;;;4948629;29;20485;-91
2024/03/13 06:17:38;;;;;;;65.05;23.48;;;6.30;99.90;;;;;;4960414;29;20047;-91
2024/03/13 06:20:17;;;;;;;66.60;22.67;;;6.70;99.90;;;;;;4957470;29;20382;-91
2024/03/13 06:22:44;;;;;;;69.03;22.75;;;6.40;99.90;;;;;;4950013;29;20050;-89
2024/03/13 06:25:12;;;;;;;62.05;22.77;;;7.40;99.90;;;;;;4941781;29;20126;-91
2024/03/13 06:27:40;;;;;;;73.15;23.50;;;7.00;99.90;;;;;;4959838;29;20040;-91
2024/03/13 06:30:08;;;;;;;72.32;23.55;;;7.30;99.90;;;;;;4961024;29;20090;-91
2024/03/13 06:32:35;;;;;;;81.72;24.20;;;6.40;99.90;;;;;;4956255;29;20079;-91
2024/03/13 06:35:03;;;;;;;81.88;23.70;;;6.90;99.90;;;;;;4968569;29;20490;-92
2024/03/13 06:37:31;;;;;;;68.93;22.52;;;6.50;99.90;;;;;;4937208;29;20096;-91
2024/03/13 06:39:58;;;;;;;71.95;22.98;;;7.40;99.90;;;;;;4962057;29;20119;-91
2024/03/13 06:42:25;;;;;;;71.28;24.52;;;6.50;99.90;;;;;;4965330;29;20118;-92
2024/03/13 06:44:52;;;;;;;65.68;23.38;;;7.50;99.90;;;;;;4944268;29;20036;-92
2024/03/13 06:47:20;;;;;;;64.50;23.73;;;7.00;99.90;;;;;;4942923;29;20132;-91
2024/03/13 06:49:47;;;;;;;77.75;23.92;;;6.70;99.90;;;;;;4960349;29;20495;-91
2024/03/13 06:52:14;;;;;;;64.28;22.70;;;6.60;99.90;;;;;;4968445;29;20051;-91
2024/03/13 06:54:42;;;;;;;67.07;22.55;;;6.60;99.90;;;;;;4966657;29;20481;-92
2024/03/13 06:57:12;;;;;;;74.05;21.90;;;6.70;99.90;;;;;;4954087;29;20508;-91
2024/03/13 06:59:39;;;;;;;73.10;23.27;;;6.60;99.90;;;;;;4945363;29;20067;-92
2024/03/13 07:02:10;;;;;;;84.35;23.60;;;6.70;99.90;;;;;;4959076;29;20036;-91
2024/03/13 07:04:39;;;;;;;71.93;21.98;;;6.70;99.90;;;;;;4959447;29;20428;-91
2024/03/13 07:07:06;;;;;;;69.32;23.63;;;6.70;99.90;;;;;;4965655;29;20082;-90
2024/03/13 07:09:33;;;;;;;71.32;23.25;;;7.80;99.90;;;;;;4963084;29;20126;-91
2024/03/13 07:11:59;;;;;;;76.30;22.80;;;7.40;99.90;;;;;;4946414;29;20131;-92
2024/03/13 07:14:26;;;;;;;75.97;23.20;;;6.80;99.90;;;;;;4955945;29;20090;-92
2024/03/13 07:16:53;;;;;;;73.40;22.25;;;7.30;99.90;;;;;;4955752;29;20040;-93
2024/03/13 07:19:19;;;;;;;77.60;22.27;;;7.50;99.90;;;;;;4961975;29;20043;-91
2024/03/13 07:21:46;;;;;;;73.82;22.50;;;7.20;99.90;;;;;;4967110;29;20630;-90
2024/03/13 07:24:13;;;;;;;72.22;21.52;;;8.00;99.90;;;;;;4961610;29;20460;-92
2024/03/13 07:26:40;;;;;;;73.32;22.25;;;7.00;99.90;;;;;;4954948;29;20632;-91
2024/03/13 07:29:07;;;;;;;78.00;21.50;;;7.10;99.90;;;;;;4963514;29;20147;-91
2024/03/13 07:31:34;;;;;;;64.35;21.73;;;7.40;99.90;;;;;;4963979;29;20106;-92
2024/03/13 07:34:00;;;;;;;72.60;22.65;;;7.10;99.90;;;;;;4957817;29;20067;-92
2024/03/13 07:36:27;;;;;;;75.18;22.35;;;7.30;99.90;;;;;;4969724;28;20035;-92
2024/03/13 07:38:55;;;;;;;76.80;22.45;;;7.20;99.90;;;;;;4952556;29;20090;-91
2024/03/13 07:41:21;;;;;;;69.40;21.52;;;7.30;99.90;;;;;;4955786;28;20036;-92
2024/03/13 07:43:49;;;;;;;77.72;21.63;;;7.30;99.90;;;;;;4955083;29;20043;-90
2024/03/13 07:46:18;;;;;;;78.38;21.75;;;7.30;99.90;;;;;;4953427;29;20040;-91
2024/03/13 07:48:45;;;;;;;71.72;22.38;;;7.40;99.90;;;;;;4958822;29;20162;-91
2024/03/13 07:51:12;;;;;;;68.80;21.27;;;7.60;99.90;;;;;;4956204;29;20071;-91
2024/03/13 07:53:39;;;;;;;67.47;20.48;;;8.00;99.90;;;;;;4968402;29;20039;-91
2024/03/13 07:56:06;;;;;;;70.45;20.70;;;7.50;99.90;;;;;;4960736;29;20040;-91
2024/03/13 07:58:33;;;;;;;75.57;21.85;;;8.50;99.90;;;;;;4949571;29;20086;-91
2024/03/13 08:01:01;;;;;;;71.20;22.58;;;7.70;99.90;;;;;;4946669;29;20072;-91
2024/03/13 08:03:28;;;;;;;68.20;21.70;;;8.40;99.90;;;;;;4965732;29;20050;-91
2024/03/13 08:05:55;;;;;;;73.55;22.17;;;8.30;99.90;;;;;;4963493;29;20494;-91
2024/03/13 08:08:21;;;;;;;80.18;21.83;;;7.70;99.90;;;;;;4965565;29;20595;-92
2024/03/13 08:10:49;;;;;;;74.55;21.08;;;8.60;99.90;;;;;;4972801;28;20612;-92
2024/03/13 08:13:16;;;;;;;69.13;20.70;;;8.70;99.90;;;;;;4942127;29;20138;-91
2024/03/13 08:15:43;;;;;;;71.45;20.48;;;8.20;99.90;;;;;;4953960;29;20044;-91
2024/03/13 08:18:14;;;;;;;64.00;21.80;;;8.40;99.90;;;;;;4976100;29;20453;-92
2024/03/13 08:20:41;;;;;;;62.53;20.83;;;8.00;99.90;;;;;;4944542;29;20036;-92
2024/03/13 08:23:08;;;;;;;69.60;21.70;;;7.80;99.90;;;;;;4960266;29;20043;-91
2024/03/13 08:25:35;;;;;;;65.50;20.00;;;7.20;99.90;;;;;;4940550;29;20060;-92
2024/03/13 08:28:09;;;;;;;60.95;20.55;;;7.60;99.90;;;;;;4956253;28;20068;-92
2024/03/13 08:30:40;;;;;;;71.43;21.88;;;7.90;99.90;;;;;;4948601;29;20489;-92
2024/03/13 08:33:07;;;;;;;72.00;21.02;;;7.90;99.90;;;;;;4949670;29;20105;-92
2024/03/13 08:35:33;;;;;;;67.05;20.60;;;8.80;99.90;;;;;;4945261;29;20036;-91
2024/03/13 08:38:00;;;;;;;69.43;21.35;;;8.70;99.90;;;;;;4946494;29;20111;-91
2024/03/13 08:40:28;;;;;;;65.50;21.23;;;8.90;99.90;;;;;;4943527;29;20047;-92
2024/03/13 08:42:58;;;;;;;64.18;20.70;;;8.00;99.90;;;;;;4945932;29;20099;-91
2024/03/13 08:45:28;;;;;;;67.80;21.20;;;8.70;99.90;;;;;;4950482;29;20118;-91
2024/03/13 08:47:55;;;;;;;65.47;20.13;;;8.70;99.90;;;;;;4953177;29;20040;-91
2024/03/13 08:50:22;;;;;;;66.97;21.85;;;8.40;99.90;;;;;;4947967;29;20553;-91
2024/03/13 08:52:48;;;;;;;61.55;21.45;;;8.90;99.90;;;;;;4944569;29;20122;-91
2024/03/13 08:55:17;;;;;;;63.45;20.15;;;8.10;99.90;;;;;;4947180;29;20052;-92
2024/03/13 08:57:45;;;;;;;62.42;18.73;;;8.20;99.90;;;;;;4946693;29;20040;-91
2024/03/13 09:00:22;;;;;;;61.22;19.35;;;9.20;99.90;;;;;;4950366;29;20028;-90
2024/03/13 09:02:56;;;;;;;56.80;18.60;;;8.20;99.90;;;;;;4950877;29;20044;-91
2024/03/13 09:05:28;;;;;;;46.92;17.65;;;9.10;99.90;;;;;;4956706;29;20100;-92
2024/03/13 09:07:55;;;;;;;55.35;18.55;;;9.40;99.90;;;;;;4955772;29;20036;-92
2024/03/13 09:10:22;;;;;;;52.55;17.55;;;8.30;99.90;;;;;;4947995;28;20043;-92
2024/03/13 09:12:50;;;;;;;57.35;18.23;;;8.30;99.90;;;;;;4951079;29;20524;-92
2024/03/13 09:15:17;;;;;;;45.67;16.50;;;9.20;99.90;;;;;;4949092;28;20055;-91
2024/03/13 09:17:43;;;;;;;50.45;16.58;;;8.50;99.90;;;;;;4956021;29;20042;-92
2024/03/13 09:20:15;;;;;;;47.95;16.63;;;9.00;99.90;;;;;;4942867;29;20075;-92
2024/03/13 09:22:42;;;;;;;36.13;14.95;;;8.50;99.90;;;;;;4947547;29;20493;-91
2024/03/13 09:25:12;;;;;;;51.88;16.67;;;9.60;99.90;;;;;;4941706;29;20171;-90
2024/03/13 09:27:39;;;;;;;49.78;16.98;;;8.60;99.90;;;;;;4960245;29;20058;-91
2024/03/13 09:30:11;;;;;;;44.08;16.15;;;9.10;99.90;;;;;;4946461;29;20040;-91
2024/03/13 09:32:38;;;;;;;43.63;15.70;;;8.70;99.90;;;;;;4951830;29;20042;-92
2024/03/13 09:35:09;;;;;;;46.35;16.02;;;8.70;99.90;;;;;;4957407;29;20043;-90
2024/03/13 09:37:40;;;;;;;42.25;15.43;;;8.70;99.90;;;;;;4957082;29;20120;-90
2024/03/13 09:40:16;;;;;;;43.75;16.50;;;8.80;99.90;;;;;;4955989;29;20118;-91
2024/03/13 09:42:52;;;;;;;36.53;14.07;;;8.80;99.90;;;;;;4952109;29;20032;-92
2024/03/13 09:45:25;;;;;;;37.92;15.10;;;9.00;99.90;;;;;;4947516;29;20039;-91
2024/03/13 09:47:52;;;;;;;39.22;14.48;;;9.10;99.90;;;;;;4939610;29;20103;-92
2024/03/13 09:50:22;;;;;;;39.63;14.60;;;9.10;99.90;;;;;;4937809;29;20051;-91
2024/03/13 09:52:49;;;;;;;33.83;13.75;;;10.20;99.90;;;;;;4933931;29;20044;-90
2024/03/13 09:55:18;;;;;;;35.65;13.70;;;9.20;99.90;;;;;;4949371;29;20099;-90
2024/03/13 09:57:49;;;;;;;44.38;14.07;;;9.30;99.90;;;;;;4953077;29;20046;-91
2024/03/13 10:00:18;;;;;;;37.50;13.07;;;9.30;99.90;;;;;;4953136;29;20110;-91
2024/03/13 10:02:50;;;;;;;37.55;13.88;;;9.30;99.90;;;;;;4957016;29;20070;-91
2024/03/13 10:05:19;;;;;;;36.28;13.18;;;9.30;99.90;;;;;;4946804;29;20048;-90
2024/03/13 10:07:50;;;;;;;33.78;13.93;;;10.00;99.90;;;;;;4947885;29;20096;-91
2024/03/13 10:10:26;;;;;;;39.25;13.40;;;9.40;99.90;;;;;;4950011;29;20047;-90
2024/03/13 10:12:56;;;;;;;36.45;13.93;;;9.40;99.90;;;;;;4951318;29;20043;-89
2024/03/13 10:15:23;;;;;;;36.60;14.20;;;9.50;99.90;;;;;;4946328;29;20119;-92
2024/03/13 10:18:17;;;;;;;32.20;13.52;;;9.50;99.90;;;;;;4952712;28;20040;-92
2024/03/13 10:21:02;;;;;;;34.38;13.88;;;9.50;99.90;;;;;;4948805;29;20493;-93
2024/03/13 10:23:30;;;;;;;37.95;13.95;;;9.60;99.90;;;;;;4946925;29;20032;-91
2024/03/13 10:25:59;;;;;;;39.15;13.30;;;9.90;99.90;;;;;;4961656;29;20126;-94
2024/03/13 10:28:26;;;;;;;33.33;13.80;;;9.70;99.90;;;;;;4944166;29;20052;-92
2024/03/13 10:30:56;;;;;;;33.08;13.77;;;9.80;99.90;;;;;;4960483;29;20035;-93
2024/03/13 10:33:22;;;;;;;37.20;13.68;;;9.80;99.90;;;;;;4956389;29;20039;-91
2024/03/13 10:35:49;;;;;;;31.80;13.52;;;9.90;99.90;;;;;;4949038;29;20044;-90
2024/03/13 10:38:16;;;;;;;30.95;12.50;;;10.40;99.90;;;;;;4963353;29;20054;-91
2024/03/13 10:40:43;;;;;;;31.15;12.15;;;10.00;99.90;;;;;;4964960;29;20055;-90
2024/03/13 10:43:10;;;;;;;30.58;11.85;;;10.00;99.90;;;;;;4987901;28;20043;-91
2024/03/13 10:45:37;;;;;;;29.45;11.60;;;10.10;99.90;;;;;;4958625;29;20050;-91
2024/03/13 10:48:10;;;;;;;29.15;11.57;;;10.10;99.90;;;;;;4957073;29;20047;-90
2024/03/13 10:50:37;;;;;;;26.20;11.48;;;10.20;99.90;;;;;;4955784;29;20060;-90
2024/03/13 10:53:06;;;;;;;27.05;12.07;;;10.20;99.90;;;;;;4946310;29;20044;-89
2024/03/13 10:55:33;;;;;;;29.45;12.15;;;10.30;99.90;;;;;;4963048;29;20082;-91
2024/03/13 10:58:00;;;;;;;27.88;11.80;;;10.30;99.90;;;;;;4953990;29;20063;-92
2024/03/13 11:00:30;;;;;;;29.83;11.70;;;10.40;99.90;;;;;;4952641;29;20078;-90
2024/03/13 11:02:57;;;;;;;32.63;12.50;;;10.40;99.90;;;;;;4945307;29;20032;-90
2024/03/13 11:05:25;;;;;;;39.33;12.70;;;10.60;99.90;;;;;;4951965;29;20046;-90
2024/03/13 11:07:55;;;;;;;29.90;12.45;;;10.50;99.90;;;;;;4952645;29;20051;-89
2024/03/13 11:10:22;;;;;;;38.00;12.63;;;10.60;99.90;;;;;;4942123;29;20040;-88
2024/03/13 11:12:51;;;;;;;31.27;12.20;;;10.60;99.90;;;;;;4946180;29;20107;-90
2024/03/13 11:15:23;;;;;;;36.85;13.30;;;11.10;99.90;;;;;;4946882;29;20091;-92
2024/03/13 11:17:56;;;;;;;31.08;12.55;;;10.70;99.90;;;;;;4956444;29;20043;-92
2024/03/13 11:20:42;;;;;;;27.65;12.52;;;10.70;99.90;;;;;;4941848;29;20094;-92
2024/03/13 11:23:34;;;;;;;29.35;12.32;;;10.80;99.90;;;;;;4954137;29;20040;-92
2024/03/13 11:26:09;;;;;;;26.65;11.27;;;10.90;99.90;;;;;;4948782;29;20044;-92
2024/03/13 11:28:37;;;;;;;33.72;12.35;;;11.10;99.90;;;;;;4946745;29;21346;-92
2024/03/13 11:31:05;;;;;;;28.50;12.40;;;10.90;99.90;;;;;;4945028;29;20044;-92
2024/03/13 11:33:31;;;;;;;27.05;11.43;;;10.90;99.90;;;;;;4946537;29;20368;-92
2024/03/13 11:35:58;;;;;;;27.35;11.25;;;11.40;99.90;;;;;;4950366;29;20122;-93
2024/03/13 11:38:25;;;;;;;25.67;10.77;;;11.20;99.90;;;;;;4951351;29;20497;-92
2024/03/13 11:40:54;;;;;;;25.02;10.88;;;11.00;99.90;;;;;;4952763;29;20121;-92
2024/03/13 11:43:26;;;;;;;21.67;10.80;;;10.90;99.90;;;;;;4961861;28;20130;-91
2024/03/13 11:45:52;;;;;;;29.92;10.50;;;10.90;99.90;;;;;;4954841;29;20039;-92
2024/03/13 11:48:20;;;;;;;26.83;10.18;;;10.90;99.90;;;;;;4957272;29;20412;-91
2024/03/13 11:51:13;;;;;;;26.67;10.18;;;10.90;99.90;;;;;;4939758;29;20047;-92
2024/03/13 11:53:40;;;;;;;24.15;10.27;;;11.00;99.90;;;;;;4967581;29;20047;-90
2024/03/13 11:56:21;;;;;;;23.05;10.10;;;11.00;99.90;;;;;;4953208;29;20394;-93
2024/03/13 11:58:48;;;;;;;24.02;10.23;;;11.00;99.90;;;;;;4951071;29;20052;-92
2024/03/13 12:01:15;;;;;;;21.42;10.55;;;11.00;99.90;;;;;;4951868;29;20044;-91
2024/03/13 12:03:45;;;;;;;25.90;10.25;;;11.00;99.90;;;;;;4957480;28;20039;-91
2024/03/13 12:06:21;;;;;;;25.45;10.38;;;11.40;99.90;;;;;;4939615;29;20047;-91
2024/03/13 12:08:48;;;;;;;23.52;10.63;;;11.00;99.90;;;;;;4961693;29;20048;-90
2024/03/13 12:11:20;;;;;;;26.55;10.52;;;11.00;99.90;;;;;;4955327;29;20035;-91
2024/03/13 12:13:46;;;;;;;22.83;9.82;;;11.00;99.90;;;;;;4950934;29;20043;-91
2024/03/13 12:16:20;;;;;;;18.33;9.80;;;11.00;99.90;;;;;;4940616;29;20048;-90
2024/03/13 12:18:56;;;;;;;22.55;9.57;;;11.00;99.90;;;;;;4945670;28;20041;-91
2024/03/13 12:21:24;;;;;;;19.23;9.73;;;11.00;99.90;;;;;;4948285;29;20046;-91
2024/03/13 12:23:52;;;;;;;18.10;9.38;;;11.00;99.90;;;;;;4952275;29;20032;-91
2024/03/13 12:26:19;;;;;;;21.33;9.15;;;11.00;99.90;;;;;;4944973;29;20151;-90
2024/03/13 12:28:47;;;;;;;20.25;8.93;;;11.10;99.90;;;;;;4951011;29;20459;-90
2024/03/13 12:31:16;;;;;;;19.52;9.07;;;11.10;99.90;;;;;;4951598;29;20039;-91
2024/03/13 12:33:47;;;;;;;24.05;9.25;;;11.10;99.90;;;;;;4953209;29;20497;-91
2024/03/13 12:36:14;;;;;;;18.65;8.70;;;11.30;99.90;;;;;;4945430;29;20044;-91
2024/03/13 12:38:41;;;;;;;18.40;8.68;;;11.90;99.90;;;;;;4946432;29;20055;-91
2024/03/13 12:41:08;;;;;;;18.65;8.32;;;11.20;99.90;;;;;;4951339;29;20466;-91
2024/03/13 12:43:35;;;;;;;24.42;9.02;;;11.10;99.90;;;;;;4951791;29;20075;-91
2024/03/13 12:46:02;;;;;;;18.88;9.32;;;11.20;99.90;;;;;;4953195;29;20040;-91
2024/03/13 12:48:33;;;;;;;18.65;8.73;;;11.20;99.90;;;;;;4942181;29;20044;-91
2024/03/13 12:51:01;;;;;;;19.02;8.80;;;11.20;99.90;;;;;;4951564;29;20078;-91
2024/03/13 12:53:31;;;;;;;19.33;9.10;;;11.20;99.90;;;;;;4950107;29;20122;-91
2024/03/13 12:55:58;;;;;;;20.13;8.50;;;11.60;99.90;;;;;;4945825;29;20054;-90
2024/03/13 12:58:29;;;;;;;22.02;9.73;;;11.90;99.90;;;;;;4962361;29;20433;-91
2024/03/13 13:00:56;;;;;;;17.55;9.50;;;11.30;99.90;;;;;;4954745;29;20040;-91